Time;durP1;ratioP1;P1;durP2;ratioP2;P2;SDS_P1;SDS_P2;PMS_P1;PMS_P2;Temp;Humidity;BMP_temperature;BMP_pressure;BME280_temperature;BME280_humidity;BME280_pressure;Samples;Min_cycle;Max_cycle;Signal;HPM_P1;HPM_P2
2022/05/19 00:03:42;;;;;;;3.42;1.48;;;21.10;65.60;;;;;;20801268;28;20088;-78
2022/05/19 00:13:43;;;;;;;2.50;2.05;;;21.10;65.60;;;;;;20798501;28;20550;-77
2022/05/19 00:23:43;;;;;;;1.83;1.60;;;21.10;65.60;;;;;;20799656;28;20065;-77
2022/05/19 00:33:44;;;;;;;3.03;1.60;;;21.20;65.60;;;;;;20814272;28;20041;-78
2022/05/19 00:43:46;;;;;;;2.72;1.80;;;21.10;65.60;;;;;;20798337;28;20694;-77
2022/05/19 00:53:54;;;;;;;3.35;1.70;;;21.10;65.60;;;;;;20780455;28;20056;-77
2022/05/19 01:03:57;;;;;;;2.10;1.50;;;21.10;65.60;;;;;;20779517;28;20079;-77
2022/05/19 01:13:58;;;;;;;2.03;1.83;;;21.10;65.60;;;;;;20779241;28;20128;-77
2022/05/19 01:24:04;;;;;;;2.13;1.67;;;21.10;65.60;;;;;;20794693;28;20072;-79
2022/05/19 01:34:06;;;;;;;2.60;1.98;;;21.10;65.60;;;;;;20827120;28;20076;-78
2022/05/19 01:44:17;;;;;;;1.70;1.35;;;21.00;65.60;;;;;;20776804;28;20084;-77
2022/05/19 01:54:41;;;;;;;3.33;1.90;;;21.00;65.60;;;;;;20809287;28;20037;-77
2022/05/19 02:05:10;;;;;;;2.17;1.90;;;21.00;65.60;;;;;;20779301;28;20372;-79
2022/05/19 02:15:12;;;;;;;2.33;1.88;;;21.00;65.60;;;;;;20794293;28;20038;-77
2022/05/19 02:25:26;;;;;;;2.85;1.98;;;21.00;65.60;;;;;;20777836;28;20045;-77
2022/05/19 02:35:27;;;;;;;3.63;1.58;;;21.00;65.60;;;;;;20795129;28;20033;-77
2022/05/19 02:45:27;;;;;;;3.20;1.90;;;21.00;65.60;;;;;;20806841;28;20041;-77
2022/05/19 02:55:28;;;;;;;2.30;1.80;;;21.00;65.70;;;;;;20823281;28;20091;-77
2022/05/19 03:05:31;;;;;;;2.60;2.00;;;21.00;65.60;;;;;;20821244;28;20033;-79
2022/05/19 03:15:35;;;;;;;2.65;2.20;;;20.90;65.60;;;;;;20788623;28;20038;-78
2022/05/19 03:25:36;;;;;;;2.20;1.80;;;20.90;65.60;;;;;;20804287;28;20037;-76
2022/05/19 03:35:37;;;;;;;2.30;1.80;;;20.90;65.60;;;;;;20785427;28;20033;-77
2022/05/19 03:45:37;;;;;;;2.22;1.90;;;20.90;65.60;;;;;;20800275;28;20083;-77
2022/05/19 03:55:38;;;;;;;3.38;2.00;;;20.90;65.60;;;;;;20817450;28;20109;-77
2022/05/19 04:05:38;;;;;;;4.35;1.95;;;20.90;65.60;;;;;;20799925;28;20034;-78
2022/05/19 04:15:39;;;;;;;2.33;1.95;;;20.90;65.50;;;;;;20800330;28;20087;-78
2022/05/19 04:25:40;;;;;;;3.40;2.58;;;20.80;65.50;;;;;;20799566;28;20477;-77
2022/05/19 04:35:41;;;;;;;2.63;2.13;;;20.80;65.50;;;;;;20782498;28;20045;-77
2022/05/19 04:45:42;;;;;;;2.10;1.77;;;20.80;65.50;;;;;;20796581;28;20037;-81
2022/05/19 04:55:42;;;;;;;2.08;1.80;;;20.80;65.40;;;;;;20795561;28;20048;-78
2022/05/19 05:05:44;;;;;;;2.65;2.00;;;20.80;65.50;;;;;;20771986;28;20034;-80
2022/05/19 05:15:45;;;;;;;2.67;2.25;;;20.80;65.40;;;;;;20799273;28;20041;-75
2022/05/19 05:25:46;;;;;;;3.13;2.15;;;20.80;65.40;;;;;;20803027;28;20064;-78
2022/05/19 05:35:47;;;;;;;2.47;2.13;;;20.80;65.40;;;;;;20788023;28;20440;-76
2022/05/19 05:45:48;;;;;;;2.60;2.40;;;20.80;65.40;;;;;;20786227;28;20120;-74
2022/05/19 05:55:49;;;;;;;3.05;2.33;;;20.80;65.40;;;;;;20770612;28;20190;-74
2022/05/19 06:05:51;;;;;;;4.15;1.98;;;20.80;65.40;;;;;;20787580;28;20056;-74
2022/05/19 06:15:52;;;;;;;3.45;2.40;;;20.90;65.50;;;;;;20799966;28;20105;-74
2022/05/19 06:25:52;;;;;;;3.17;2.10;;;20.90;65.40;;;;;;20818661;28;20037;-74
2022/05/19 06:35:53;;;;;;;2.20;1.80;;;20.90;65.40;;;;;;20749836;28;20124;-74
2022/05/19 06:45:53;;;;;;;2.88;2.00;;;20.90;65.40;;;;;;20800435;28;20060;-73
2022/05/19 06:55:54;;;;;;;3.17;2.10;;;20.90;65.40;;;;;;20767111;28;20033;-74
2022/05/19 07:05:54;;;;;;;2.42;2.17;;;20.90;65.30;;;;;;20782378;28;20120;-75
2022/05/19 07:15:55;;;;;;;2.88;2.17;;;21.00;65.30;;;;;;21160917;22;20041;-69
2022/05/19 07:25:56;;;;;;;2.58;1.85;;;20.90;65.10;;;;;;20797107;28;20045;-71
2022/05/19 07:35:56;;;;;;;5.90;1.63;;;21.00;65.10;;;;;;20833140;28;20155;-73
2022/05/19 07:46:00;;;;;;;2.75;2.05;;;21.00;65.00;;;;;;20812657;28;20539;-72
2022/05/19 07:56:00;;;;;;;2.63;1.90;;;21.10;65.00;;;;;;20780326;28;20029;-74
2022/05/19 08:06:01;;;;;;;1.98;1.77;;;21.10;64.90;;;;;;20779039;28;20129;-73
2022/05/19 08:16:02;;;;;;;1.83;1.63;;;21.10;64.80;;;;;;20815841;28;20035;-73
2022/05/19 08:26:03;;;;;;;1.85;1.67;;;21.20;64.80;;;;;;20785463;28;20045;-73
2022/05/19 08:36:05;;;;;;;1.88;1.60;;;21.20;64.80;;;;;;20808749;28;20022;-73
2022/05/19 08:46:05;;;;;;;4.20;1.50;;;21.20;64.80;;;;;;20776097;28;20038;-73
2022/05/19 08:56:48;;;;;;;2.67;1.67;;;21.20;64.80;;;;;;20791702;28;20040;-73
2022/05/19 09:17:35;;;;;;;2.20;1.80;;;21.20;64.80;;;;;;20812500;28;20037;-72
2022/05/19 09:27:40;;;;;;;3.13;2.08;;;21.30;64.70;;;;;;20770848;28;20619;-78
2022/05/19 09:37:43;;;;;;;3.08;2.03;;;21.40;64.70;;;;;;20787140;28;20493;-75
2022/05/19 09:47:46;;;;;;;4.15;1.90;;;21.40;64.70;;;;;;20753891;28;20049;-75
2022/05/19 09:57:50;;;;;;;3.72;1.83;;;21.40;64.70;;;;;;20798463;28;20029;-74
2022/05/19 10:07:51;;;;;;;3.28;1.70;;;21.40;64.70;;;;;;20784616;28;20073;-78
2022/05/19 10:18:10;;;;;;;4.10;2.30;;;21.40;64.70;;;;;;20784906;28;20041;-77
2022/05/19 10:39:22;;;;;;;2.85;2.08;;;21.50;64.70;;;;;;20768351;28;20033;-78
2022/05/19 10:49:51;;;;;;;2.15;1.52;;;21.50;64.70;;;;;;20786321;28;20049;-80
2022/05/19 11:00:07;;;;;;;3.20;1.73;;;21.50;64.60;;;;;;20794646;28;20037;-80
2022/05/19 11:10:20;;;;;;;1.50;1.17;;;21.50;64.60;;;;;;20799226;28;20041;-79
2022/05/19 11:20:23;;;;;;;3.63;1.38;;;21.60;64.60;;;;;;20782446;28;20033;-78
2022/05/19 11:30:28;;;;;;;3.17;1.58;;;21.60;64.60;;;;;;20780790;28;20057;-73
2022/05/19 11:40:39;;;;;;;2.75;1.55;;;21.60;64.50;;;;;;20763920;28;20120;-68
2022/05/19 12:01:01;;;;;;;2.13;1.48;;;21.70;64.70;;;;;;20797422;28;20026;-69
2022/05/19 12:11:19;;;;;;;3.13;1.73;;;21.70;64.70;;;;;;20792422;28;20063;-69
2022/05/19 12:21:29;;;;;;;3.80;1.80;;;21.70;64.70;;;;;;20760324;28;20037;-70
2022/05/19 12:41:50;;;;;;;4.00;1.42;;;21.70;64.60;;;;;;20758569;28;20033;-69
2022/05/19 12:52:02;;;;;;;5.60;1.65;;;21.80;64.70;;;;;;20791349;28;20451;-71
2022/05/19 13:02:18;;;;;;;1.73;1.35;;;21.80;64.70;;;;;;20762749;28;20037;-70
2022/05/19 13:12:22;;;;;;;3.22;1.45;;;21.90;64.70;;;;;;20775627;28;20049;-72
2022/05/19 13:22:26;;;;;;;2.83;1.67;;;21.90;64.70;;;;;;20763916;28;20428;-72
2022/05/19 13:32:33;;;;;;;2.78;1.75;;;21.90;64.60;;;;;;20788623;28;20064;-72
2022/05/19 13:42:33;;;;;;;2.03;1.52;;;22.20;63.50;;;;;;20756882;28;20389;-71
2022/05/19 13:52:36;;;;;;;3.28;2.10;;;22.60;62.00;;;;;;20772720;28;20056;-73
2022/05/19 14:02:37;;;;;;;3.80;1.98;;;22.60;61.80;;;;;;20755137;28;20021;-70
2022/05/19 14:12:47;;;;;;;3.72;2.00;;;22.50;61.70;;;;;;20770623;28;20052;-72
2022/05/19 14:22:51;;;;;;;2.42;1.77;;;22.50;61.90;;;;;;20787160;28;20037;-71
2022/05/19 14:32:57;;;;;;;2.73;1.60;;;22.50;62.00;;;;;;20809400;28;20401;-72
2022/05/19 14:43:05;;;;;;;3.63;1.83;;;22.50;62.20;;;;;;20801065;28;20618;-73
2022/05/19 14:53:13;;;;;;;4.10;1.95;;;22.50;62.40;;;;;;20791870;28;20107;-72
2022/05/19 15:03:14;;;;;;;2.88;2.13;;;22.60;62.30;;;;;;20784126;28;20043;-73
2022/05/19 15:13:14;;;;;;;3.78;2.05;;;22.70;61.60;;;;;;20798075;28;20152;-72
2022/05/19 15:23:16;;;;;;;8.82;2.30;;;22.90;61.10;;;;;;20789479;28;20122;-73
2022/05/19 15:33:17;;;;;;;3.08;1.83;;;23.10;61.40;;;;;;20762655;28;20041;-68
2022/05/19 15:43:17;;;;;;;6.53;2.58;;;23.10;61.90;;;;;;20795468;28;20167;-68
2022/05/19 15:53:19;;;;;;;6.47;2.23;;;23.20;62.50;;;;;;20829324;28;20045;-70
2022/05/19 16:03:22;;;;;;;2.03;1.58;;;23.20;62.70;;;;;;20795193;28;20508;-69
2022/05/19 16:13:23;;;;;;;2.78;1.92;;;23.20;62.10;;;;;;20794277;28;20041;-70
2022/05/19 16:23:24;;;;;;;2.60;1.65;;;23.20;60.50;;;;;;20784019;28;20038;-77
2022/05/19 16:33:25;;;;;;;3.53;1.70;;;23.20;59.60;;;;;;20774977;28;20128;-72
2022/05/19 16:43:25;;;;;;;4.10;1.70;;;23.10;60.70;;;;;;20790630;28;20068;-70
2022/05/19 16:53:26;;;;;;;3.92;1.75;;;23.00;62.50;;;;;;20766870;28;20038;-72
2022/05/19 17:03:28;;;;;;;4.63;1.40;;;22.80;63.70;;;;;;20767372;28;20044;-69
2022/05/19 17:13:30;;;;;;;3.88;1.60;;;22.80;64.60;;;;;;20755963;28;20365;-72
2022/05/19 17:23:30;;;;;;;7.65;1.85;;;22.70;65.00;;;;;;20772108;28;20037;-71
2022/05/19 17:33:31;;;;;;;2.30;1.38;;;22.60;65.20;;;;;;20785971;28;20050;-72
2022/05/19 17:43:32;;;;;;;4.38;1.15;;;22.50;65.30;;;;;;20786701;28;20029;-73
2022/05/19 17:53:33;;;;;;;3.88;1.77;;;22.50;65.60;;;;;;20786870;28;20041;-72
2022/05/19 18:03:33;;;;;;;2.67;1.20;;;22.50;65.70;;;;;;20787222;28;20044;-70
2022/05/19 18:13:34;;;;;;;3.80;1.17;;;22.40;65.80;;;;;;20802113;28;20042;-73
2022/05/19 18:23:36;;;;;;;2.92;1.30;;;22.40;66.10;;;;;;20779189;28;20076;-71
2022/05/19 18:33:37;;;;;;;6.18;1.45;;;22.40;66.30;;;;;;20802564;28;20417;-70
2022/05/19 18:53:57;;;;;;;1.50;1.02;;;22.30;66.50;;;;;;20789716;28;20404;-71
2022/05/19 19:03:58;;;;;;;4.88;1.30;;;22.30;66.60;;;;;;20787893;28;20124;-72
2022/05/19 19:13:58;;;;;;;2.70;1.08;;;22.30;66.70;;;;;;20769966;28;20042;-70
2022/05/19 19:23:59;;;;;;;1.45;1.08;;;22.30;66.70;;;;;;20778636;28;20033;-73
2022/05/19 19:34:00;;;;;;;1.45;1.00;;;22.20;66.80;;;;;;20760677;28;20047;-72
2022/05/19 19:44:00;;;;;;;2.53;0.90;;;22.20;66.80;;;;;;20766384;28;20021;-73
2022/05/19 19:54:02;;;;;;;1.35;0.80;;;22.20;66.90;;;;;;20802243;28;20688;-74
2022/05/19 20:04:03;;;;;;;1.27;0.90;;;22.10;66.80;;;;;;20793544;28;20497;-73
2022/05/19 20:14:04;;;;;;;1.33;1.02;;;22.10;66.80;;;;;;20809400;28;20057;-73
2022/05/19 20:24:05;;;;;;;1.90;1.40;;;22.10;66.80;;;;;;20784023;28;20453;-72
2022/05/19 20:34:05;;;;;;;1.83;1.02;;;22.10;66.80;;;;;;20755116;28;20041;-72
2022/05/19 20:44:06;;;;;;;1.20;0.90;;;22.10;66.80;;;;;;20772908;28;20033;-74
2022/05/19 20:54:06;;;;;;;1.70;0.98;;;22.10;66.80;;;;;;20775479;28;20784;-73
2022/05/19 21:04:07;;;;;;;2.13;1.00;;;22.00;66.80;;;;;;20791018;28;20373;-73
2022/05/19 21:14:09;;;;;;;1.25;0.77;;;22.00;66.80;;;;;;20774133;28;20449;-74
2022/05/19 21:34:29;;;;;;;0.88;0.60;;;22.00;66.90;;;;;;20808942;28;20037;-74
2022/05/19 21:44:30;;;;;;;1.30;0.80;;;22.00;67.00;;;;;;20788175;28;20040;-74
2022/05/19 22:04:50;;;;;;;2.97;0.93;;;21.90;67.00;;;;;;20776298;28;20022;-73
2022/05/19 22:14:50;;;;;;;1.63;0.95;;;22.00;67.00;;;;;;20771691;28;20541;-74
2022/05/19 22:24:51;;;;;;;1.27;1.00;;;21.90;67.00;;;;;;20771212;28;20071;-73
2022/05/19 22:34:52;;;;;;;1.25;0.77;;;21.90;67.10;;;;;;20754386;28;20465;-72
2022/05/19 22:44:53;;;;;;;2.05;1.15;;;21.90;67.10;;;;;;20787430;28;20053;-73
2022/05/19 22:54:56;;;;;;;1.33;0.90;;;21.90;67.20;;;;;;20761168;28;20106;-74
2022/05/19 23:04:56;;;;;;;1.45;1.00;;;21.80;67.10;;;;;;20800406;28;20036;-73
2022/05/19 23:14:57;;;;;;;1.90;0.77;;;21.80;67.20;;;;;;20783718;28;20124;-73
2022/05/19 23:24:58;;;;;;;2.00;1.10;;;21.80;67.20;;;;;;20783445;28;20319;-72
2022/05/19 23:34:58;;;;;;;1.23;0.77;;;21.80;67.30;;;;;;20797935;28;20029;-74
2022/05/19 23:44:59;;;;;;;1.60;1.10;;;21.80;67.30;;;;;;20765277;28;20037;-73
2022/05/19 23:55:00;;;;;;;3.80;1.00;;;21.70;67.60;;;;;;20765723;28;20108;-73
